sensor_id;sensor_type;location;lat;lon;timestamp;P1;durP1;ratioP1;P2;durP2;ratioP2
18407;SDS011;9330;52.210;21.174;2022-10-23T00:00:17;24.23;;;18.25;;
18407;SDS011;9330;52.210;21.174;2022-10-23T00:02:44;25.45;;;18.13;;
18407;SDS011;9330;52.210;21.174;2022-10-23T00:05:17;22.20;;;16.65;;
18407;SDS011;9330;52.210;21.174;2022-10-23T00:07:47;21.38;;;16.48;;
18407;SDS011;9330;52.210;21.174;2022-10-23T00:10:15;20.02;;;16.85;;
18407;SDS011;9330;52.210;21.174;2022-10-23T00:12:44;22.85;;;17.38;;
18407;SDS011;9330;52.210;21.174;2022-10-23T00:15:11;21.30;;;16.52;;
18407;SDS011;9330;52.210;21.174;2022-10-23T00:17:40;26.98;;;19.70;;
18407;SDS011;9330;52.210;21.174;2022-10-23T00:20:07;23.23;;;18.35;;
18407;SDS011;9330;52.210;21.174;2022-10-23T00:22:35;23.10;;;17.27;;
18407;SDS011;9330;52.210;21.174;2022-10-23T00:25:02;21.42;;;17.83;;
18407;SDS011;9330;52.210;21.174;2022-10-23T00:27:30;21.27;;;17.13;;
18407;SDS011;9330;52.210;21.174;2022-10-23T00:29:59;21.08;;;17.58;;
18407;SDS011;9330;52.210;21.174;2022-10-23T00:32:27;24.13;;;17.30;;
18407;SDS011;9330;52.210;21.174;2022-10-23T00:34:54;23.05;;;18.08;;
18407;SDS011;9330;52.210;21.174;2022-10-23T00:37:21;21.65;;;16.23;;
18407;SDS011;9330;52.210;21.174;2022-10-23T00:39:48;18.88;;;15.88;;
18407;SDS011;9330;52.210;21.174;2022-10-23T00:42:16;20.25;;;18.00;;
18407;SDS011;9330;52.210;21.174;2022-10-23T00:47:37;23.30;;;18.90;;
18407;SDS011;9330;52.210;21.174;2022-10-23T00:50:04;23.52;;;18.92;;
18407;SDS011;9330;52.210;21.174;2022-10-23T00:52:32;22.40;;;18.65;;
18407;SDS011;9330;52.210;21.174;2022-10-23T00:55:02;23.13;;;18.23;;
18407;SDS011;9330;52.210;21.174;2022-10-23T00:57:30;20.95;;;18.10;;
18407;SDS011;9330;52.210;21.174;2022-10-23T00:59:57;22.85;;;18.75;;
18407;SDS011;9330;52.210;21.174;2022-10-23T01:02:25;24.63;;;19.55;;
18407;SDS011;9330;52.210;21.174;2022-10-23T01:04:52;21.48;;;18.42;;
18407;SDS011;9330;52.210;21.174;2022-10-23T01:07:21;24.00;;;19.20;;
18407;SDS011;9330;52.210;21.174;2022-10-23T01:09:55;23.52;;;18.73;;
18407;SDS011;9330;52.210;21.174;2022-10-23T01:12:27;22.63;;;19.15;;
18407;SDS011;9330;52.210;21.174;2022-10-23T01:15:04;23.83;;;20.30;;
18407;SDS011;9330;52.210;21.174;2022-10-23T01:17:39;24.60;;;19.63;;
18407;SDS011;9330;52.210;21.174;2022-10-23T01:20:13;22.33;;;18.85;;
18407;SDS011;9330;52.210;21.174;2022-10-23T01:26:14;22.45;;;18.25;;
18407;SDS011;9330;52.210;21.174;2022-10-23T01:28:52;21.92;;;18.60;;
18407;SDS011;9330;52.210;21.174;2022-10-23T01:31:26;22.20;;;19.60;;
18407;SDS011;9330;52.210;21.174;2022-10-23T01:33:59;21.08;;;17.60;;
18407;SDS011;9330;52.210;21.174;2022-10-23T01:36:32;25.55;;;19.33;;
18407;SDS011;9330;52.210;21.174;2022-10-23T01:39:03;20.88;;;17.65;;
18407;SDS011;9330;52.210;21.174;2022-10-23T01:41:34;21.27;;;18.58;;
18407;SDS011;9330;52.210;21.174;2022-10-23T01:44:09;25.00;;;19.17;;
18407;SDS011;9330;52.210;21.174;2022-10-23T01:46:39;22.98;;;19.20;;
18407;SDS011;9330;52.210;21.174;2022-10-23T01:49:10;26.17;;;20.45;;
18407;SDS011;9330;52.210;21.174;2022-10-23T01:51:38;23.58;;;17.92;;
18407;SDS011;9330;52.210;21.174;2022-10-23T01:54:09;22.52;;;17.90;;
18407;SDS011;9330;52.210;21.174;2022-10-23T01:56:40;26.63;;;18.67;;
18407;SDS011;9330;52.210;21.174;2022-10-23T01:59:13;25.33;;;20.27;;
18407;SDS011;9330;52.210;21.174;2022-10-23T02:01:44;25.48;;;19.80;;
18407;SDS011;9330;52.210;21.174;2022-10-23T02:04:14;25.83;;;20.55;;
18407;SDS011;9330;52.210;21.174;2022-10-23T02:06:44;23.52;;;18.60;;
18407;SDS011;9330;52.210;21.174;2022-10-23T02:09:11;23.88;;;18.90;;
18407;SDS011;9330;52.210;21.174;2022-10-23T02:11:41;29.25;;;20.13;;
18407;SDS011;9330;52.210;21.174;2022-10-23T02:14:17;27.02;;;21.20;;
18407;SDS011;9330;52.210;21.174;2022-10-23T02:16:52;25.00;;;19.38;;
18407;SDS011;9330;52.210;21.174;2022-10-23T02:19:23;24.08;;;18.55;;
18407;SDS011;9330;52.210;21.174;2022-10-23T02:21:55;28.02;;;21.52;;
18407;SDS011;9330;52.210;21.174;2022-10-23T02:24:29;29.20;;;20.98;;
18407;SDS011;9330;52.210;21.174;2022-10-23T02:27:01;24.95;;;19.27;;
18407;SDS011;9330;52.210;21.174;2022-10-23T02:29:32;25.95;;;20.05;;
18407;SDS011;9330;52.210;21.174;2022-10-23T02:32:03;25.23;;;19.95;;
18407;SDS011;9330;52.210;21.174;2022-10-23T02:34:31;29.65;;;20.52;;
18407;SDS011;9330;52.210;21.174;2022-10-23T02:36:59;27.65;;;19.73;;
18407;SDS011;9330;52.210;21.174;2022-10-23T02:39:26;30.10;;;19.92;;
18407;SDS011;9330;52.210;21.174;2022-10-23T02:41:54;32.40;;;21.60;;
18407;SDS011;9330;52.210;21.174;2022-10-23T02:44:30;30.02;;;22.17;;
18407;SDS011;9330;52.210;21.174;2022-10-23T02:47:09;27.83;;;19.05;;
18407;SDS011;9330;52.210;21.174;2022-10-23T02:49:48;27.38;;;20.48;;
18407;SDS011;9330;52.210;21.174;2022-10-23T02:52:25;26.48;;;20.70;;
18407;SDS011;9330;52.210;21.174;2022-10-23T02:55:04;26.88;;;19.65;;
18407;SDS011;9330;52.210;21.174;2022-10-23T02:57:40;31.88;;;21.63;;
18407;SDS011;9330;52.210;21.174;2022-10-23T03:00:13;28.10;;;20.88;;
18407;SDS011;9330;52.210;21.174;2022-10-23T03:02:43;27.15;;;21.02;;
18407;SDS011;9330;52.210;21.174;2022-10-23T03:05:15;28.35;;;20.77;;
18407;SDS011;9330;52.210;21.174;2022-10-23T03:07:45;28.63;;;20.85;;
18407;SDS011;9330;52.210;21.174;2022-10-23T03:10:12;27.85;;;20.73;;
18407;SDS011;9330;52.210;21.174;2022-10-23T03:12:40;32.90;;;22.13;;
18407;SDS011;9330;52.210;21.174;2022-10-23T03:15:07;31.90;;;22.27;;
18407;SDS011;9330;52.210;21.174;2022-10-23T03:17:38;30.30;;;22.45;;
18407;SDS011;9330;52.210;21.174;2022-10-23T03:20:07;29.50;;;21.73;;
18407;SDS011;9330;52.210;21.174;2022-10-23T03:22:35;32.58;;;24.10;;
18407;SDS011;9330;52.210;21.174;2022-10-23T03:25:02;25.80;;;20.67;;
18407;SDS011;9330;52.210;21.174;2022-10-23T03:27:29;28.60;;;21.58;;
18407;SDS011;9330;52.210;21.174;2022-10-23T03:29:56;27.48;;;20.67;;
18407;SDS011;9330;52.210;21.174;2022-10-23T03:32:23;30.52;;;22.65;;
18407;SDS011;9330;52.210;21.174;2022-10-23T03:34:51;29.67;;;22.33;;
18407;SDS011;9330;52.210;21.174;2022-10-23T03:37:18;31.00;;;22.40;;
18407;SDS011;9330;52.210;21.174;2022-10-23T03:39:45;25.80;;;19.73;;
18407;SDS011;9330;52.210;21.174;2022-10-23T03:42:12;29.85;;;22.08;;
18407;SDS011;9330;52.210;21.174;2022-10-23T03:44:39;29.92;;;21.73;;
18407;SDS011;9330;52.210;21.174;2022-10-23T03:47:06;30.58;;;22.70;;
18407;SDS011;9330;52.210;21.174;2022-10-23T03:49:34;27.65;;;21.95;;
18407;SDS011;9330;52.210;21.174;2022-10-23T03:52:02;29.05;;;22.70;;
18407;SDS011;9330;52.210;21.174;2022-10-23T03:54:29;29.27;;;22.17;;
18407;SDS011;9330;52.210;21.174;2022-10-23T03:56:58;29.42;;;22.58;;
18407;SDS011;9330;52.210;21.174;2022-10-23T03:59:25;32.70;;;22.40;;
18407;SDS011;9330;52.210;21.174;2022-10-23T04:01:52;32.13;;;23.33;;
18407;SDS011;9330;52.210;21.174;2022-10-23T04:04:19;27.35;;;21.42;;
18407;SDS011;9330;52.210;21.174;2022-10-23T04:06:46;30.50;;;20.73;;
18407;SDS011;9330;52.210;21.174;2022-10-23T04:09:15;33.38;;;22.77;;
18407;SDS011;9330;52.210;21.174;2022-10-23T04:11:42;33.97;;;24.13;;
18407;SDS011;9330;52.210;21.174;2022-10-23T04:14:09;31.05;;;22.38;;
18407;SDS011;9330;52.210;21.174;2022-10-23T04:16:37;34.97;;;24.25;;
18407;SDS011;9330;52.210;21.174;2022-10-23T04:19:04;29.25;;;20.65;;
18407;SDS011;9330;52.210;21.174;2022-10-23T04:21:31;31.73;;;23.17;;
18407;SDS011;9330;52.210;21.174;2022-10-23T04:23:58;33.15;;;24.27;;
18407;SDS011;9330;52.210;21.174;2022-10-23T04:26:27;35.55;;;24.23;;
18407;SDS011;9330;52.210;21.174;2022-10-23T04:28:54;34.70;;;24.95;;
18407;SDS011;9330;52.210;21.174;2022-10-23T04:31:21;32.28;;;23.27;;
18407;SDS011;9330;52.210;21.174;2022-10-23T04:33:48;33.55;;;23.23;;
18407;SDS011;9330;52.210;21.174;2022-10-23T04:36:15;34.08;;;24.20;;
18407;SDS011;9330;52.210;21.174;2022-10-23T04:38:42;30.95;;;24.02;;
18407;SDS011;9330;52.210;21.174;2022-10-23T04:41:09;33.60;;;23.95;;
18407;SDS011;9330;52.210;21.174;2022-10-23T04:43:38;26.45;;;21.08;;
18407;SDS011;9330;52.210;21.174;2022-10-23T04:46:05;30.75;;;23.63;;
18407;SDS011;9330;52.210;21.174;2022-10-23T04:48:32;30.63;;;23.73;;
18407;SDS011;9330;52.210;21.174;2022-10-23T04:50:59;30.80;;;23.58;;
18407;SDS011;9330;52.210;21.174;2022-10-23T04:53:28;31.08;;;23.13;;
18407;SDS011;9330;52.210;21.174;2022-10-23T04:55:55;33.20;;;24.85;;
18407;SDS011;9330;52.210;21.174;2022-10-23T04:58:24;29.92;;;22.42;;
18407;SDS011;9330;52.210;21.174;2022-10-23T05:00:54;31.42;;;22.65;;
18407;SDS011;9330;52.210;21.174;2022-10-23T05:03:21;30.38;;;22.80;;
18407;SDS011;9330;52.210;21.174;2022-10-23T05:05:51;29.92;;;21.27;;
18407;SDS011;9330;52.210;21.174;2022-10-23T05:08:19;28.25;;;22.27;;
18407;SDS011;9330;52.210;21.174;2022-10-23T05:10:46;28.23;;;22.20;;
18407;SDS011;9330;52.210;21.174;2022-10-23T05:13:13;31.25;;;21.67;;
18407;SDS011;9330;52.210;21.174;2022-10-23T05:15:41;27.83;;;22.65;;
18407;SDS011;9330;52.210;21.174;2022-10-23T05:18:10;26.52;;;21.33;;
18407;SDS011;9330;52.210;21.174;2022-10-23T05:20:40;33.92;;;23.45;;
18407;SDS011;9330;52.210;21.174;2022-10-23T05:23:09;32.45;;;24.83;;
18407;SDS011;9330;52.210;21.174;2022-10-23T05:25:38;34.80;;;24.23;;
18407;SDS011;9330;52.210;21.174;2022-10-23T05:28:06;30.13;;;23.48;;
18407;SDS011;9330;52.210;21.174;2022-10-23T05:30:33;30.77;;;22.45;;
18407;SDS011;9330;52.210;21.174;2022-10-23T05:33:00;32.42;;;23.67;;
18407;SDS011;9330;52.210;21.174;2022-10-23T05:35:29;31.08;;;22.70;;
18407;SDS011;9330;52.210;21.174;2022-10-23T05:37:56;32.00;;;21.67;;
18407;SDS011;9330;52.210;21.174;2022-10-23T05:40:25;37.28;;;24.92;;
18407;SDS011;9330;52.210;21.174;2022-10-23T05:42:52;32.65;;;22.90;;
18407;SDS011;9330;52.210;21.174;2022-10-23T05:45:19;30.48;;;22.33;;
18407;SDS011;9330;52.210;21.174;2022-10-23T05:47:47;33.15;;;23.67;;
18407;SDS011;9330;52.210;21.174;2022-10-23T05:50:14;31.83;;;22.40;;
18407;SDS011;9330;52.210;21.174;2022-10-23T05:52:44;31.40;;;22.73;;
18407;SDS011;9330;52.210;21.174;2022-10-23T05:55:12;31.30;;;21.48;;
18407;SDS011;9330;52.210;21.174;2022-10-23T05:57:39;27.80;;;22.20;;
18407;SDS011;9330;52.210;21.174;2022-10-23T06:00:06;33.42;;;23.63;;
18407;SDS011;9330;52.210;21.174;2022-10-23T06:02:34;30.90;;;22.85;;
18407;SDS011;9330;52.210;21.174;2022-10-23T06:05:01;36.05;;;25.05;;
18407;SDS011;9330;52.210;21.174;2022-10-23T06:07:28;34.33;;;24.70;;
18407;SDS011;9330;52.210;21.174;2022-10-23T06:09:57;34.38;;;23.38;;
18407;SDS011;9330;52.210;21.174;2022-10-23T06:12:24;31.10;;;23.88;;
18407;SDS011;9330;52.210;21.174;2022-10-23T06:14:51;32.50;;;23.17;;
18407;SDS011;9330;52.210;21.174;2022-10-23T06:17:18;33.53;;;25.00;;
18407;SDS011;9330;52.210;21.174;2022-10-23T06:19:45;43.67;;;29.38;;
18407;SDS011;9330;52.210;21.174;2022-10-23T06:22:12;37.88;;;26.60;;
18407;SDS011;9330;52.210;21.174;2022-10-23T06:24:39;35.50;;;25.88;;
18407;SDS011;9330;52.210;21.174;2022-10-23T06:27:07;35.47;;;24.55;;
18407;SDS011;9330;52.210;21.174;2022-10-23T06:29:34;38.58;;;26.95;;
18407;SDS011;9330;52.210;21.174;2022-10-23T06:32:01;35.80;;;26.30;;
18407;SDS011;9330;52.210;21.174;2022-10-23T06:34:28;35.22;;;25.88;;
18407;SDS011;9330;52.210;21.174;2022-10-23T06:36:55;38.35;;;25.67;;
18407;SDS011;9330;52.210;21.174;2022-10-23T06:39:22;34.53;;;26.33;;
18407;SDS011;9330;52.210;21.174;2022-10-23T06:41:49;33.08;;;23.30;;
18407;SDS011;9330;52.210;21.174;2022-10-23T06:44:17;32.67;;;24.48;;
18407;SDS011;9330;52.210;21.174;2022-10-23T06:46:44;31.02;;;22.58;;
18407;SDS011;9330;52.210;21.174;2022-10-23T06:49:13;34.47;;;23.55;;
18407;SDS011;9330;52.210;21.174;2022-10-23T06:51:42;33.85;;;22.77;;
18407;SDS011;9330;52.210;21.174;2022-10-23T06:54:09;29.10;;;20.10;;
18407;SDS011;9330;52.210;21.174;2022-10-23T06:56:37;28.60;;;20.63;;
18407;SDS011;9330;52.210;21.174;2022-10-23T06:59:04;28.27;;;19.50;;
18407;SDS011;9330;52.210;21.174;2022-10-23T07:01:34;27.23;;;18.65;;
18407;SDS011;9330;52.210;21.174;2022-10-23T07:04:01;26.42;;;18.40;;
18407;SDS011;9330;52.210;21.174;2022-10-23T07:06:28;26.13;;;20.20;;
18407;SDS011;9330;52.210;21.174;2022-10-23T07:08:55;24.67;;;18.73;;
18407;SDS011;9330;52.210;21.174;2022-10-23T07:11:22;24.67;;;17.95;;
18407;SDS011;9330;52.210;21.174;2022-10-23T07:13:49;27.33;;;18.45;;
18407;SDS011;9330;52.210;21.174;2022-10-23T07:16:16;26.92;;;18.20;;
18407;SDS011;9330;52.210;21.174;2022-10-23T07:18:46;31.27;;;20.23;;
18407;SDS011;9330;52.210;21.174;2022-10-23T07:21:14;28.08;;;18.35;;
18407;SDS011;9330;52.210;21.174;2022-10-23T07:23:41;24.77;;;18.80;;
18407;SDS011;9330;52.210;21.174;2022-10-23T07:26:09;23.77;;;17.75;;
18407;SDS011;9330;52.210;21.174;2022-10-23T07:28:38;25.98;;;17.75;;
18407;SDS011;9330;52.210;21.174;2022-10-23T07:31:06;28.38;;;20.30;;
18407;SDS011;9330;52.210;21.174;2022-10-23T07:33:33;23.95;;;18.45;;
18407;SDS011;9330;52.210;21.174;2022-10-23T07:36:04;27.88;;;19.08;;
18407;SDS011;9330;52.210;21.174;2022-10-23T07:38:31;22.65;;;16.40;;
18407;SDS011;9330;52.210;21.174;2022-10-23T07:40:59;21.15;;;15.95;;
18407;SDS011;9330;52.210;21.174;2022-10-23T07:43:27;21.10;;;17.27;;
18407;SDS011;9330;52.210;21.174;2022-10-23T07:45:54;24.23;;;17.77;;
18407;SDS011;9330;52.210;21.174;2022-10-23T07:48:21;28.13;;;17.63;;
18407;SDS011;9330;52.210;21.174;2022-10-23T07:50:48;20.40;;;15.98;;
18407;SDS011;9330;52.210;21.174;2022-10-23T07:53:18;23.13;;;16.27;;
18407;SDS011;9330;52.210;21.174;2022-10-23T07:55:52;26.50;;;17.67;;
18407;SDS011;9330;52.210;21.174;2022-10-23T07:58:20;25.00;;;17.60;;
18407;SDS011;9330;52.210;21.174;2022-10-23T08:00:49;24.23;;;16.30;;
18407;SDS011;9330;52.210;21.174;2022-10-23T08:03:20;21.75;;;17.13;;
18407;SDS011;9330;52.210;21.174;2022-10-23T08:05:47;23.65;;;16.67;;
18407;SDS011;9330;52.210;21.174;2022-10-23T08:08:13;24.58;;;17.98;;
18407;SDS011;9330;52.210;21.174;2022-10-23T08:10:42;23.00;;;16.80;;
18407;SDS011;9330;52.210;21.174;2022-10-23T08:13:11;22.75;;;16.33;;
18407;SDS011;9330;52.210;21.174;2022-10-23T08:15:38;21.90;;;15.90;;
18407;SDS011;9330;52.210;21.174;2022-10-23T08:18:06;21.73;;;15.90;;
18407;SDS011;9330;52.210;21.174;2022-10-23T08:20:36;23.92;;;17.38;;
18407;SDS011;9330;52.210;21.174;2022-10-23T08:23:05;23.17;;;16.40;;
18407;SDS011;9330;52.210;21.174;2022-10-23T08:25:32;24.42;;;17.33;;
18407;SDS011;9330;52.210;21.174;2022-10-23T08:28:00;26.67;;;16.38;;
18407;SDS011;9330;52.210;21.174;2022-10-23T08:30:27;19.42;;;16.08;;
18407;SDS011;9330;52.210;21.174;2022-10-23T08:32:54;20.25;;;15.45;;
18407;SDS011;9330;52.210;21.174;2022-10-23T08:35:21;24.98;;;16.48;;
18407;SDS011;9330;52.210;21.174;2022-10-23T08:37:48;23.15;;;15.88;;
18407;SDS011;9330;52.210;21.174;2022-10-23T08:40:15;22.65;;;15.95;;
18407;SDS011;9330;52.210;21.174;2022-10-23T08:42:45;23.98;;;16.02;;
18407;SDS011;9330;52.210;21.174;2022-10-23T08:45:24;20.55;;;14.85;;
18407;SDS011;9330;52.210;21.174;2022-10-23T08:47:57;18.77;;;14.48;;
18407;SDS011;9330;52.210;21.174;2022-10-23T08:50:31;23.50;;;15.95;;
18407;SDS011;9330;52.210;21.174;2022-10-23T08:53:04;23.73;;;16.90;;
18407;SDS011;9330;52.210;21.174;2022-10-23T08:55:39;26.10;;;17.90;;
18407;SDS011;9330;52.210;21.174;2022-10-23T08:58:10;22.88;;;17.98;;
18407;SDS011;9330;52.210;21.174;2022-10-23T09:00:42;23.13;;;17.23;;
18407;SDS011;9330;52.210;21.174;2022-10-23T09:03:10;22.08;;;15.48;;
18407;SDS011;9330;52.210;21.174;2022-10-23T09:05:48;23.42;;;16.67;;
18407;SDS011;9330;52.210;21.174;2022-10-23T09:08:24;24.55;;;17.85;;
18407;SDS011;9330;52.210;21.174;2022-10-23T09:11:03;22.85;;;16.17;;
18407;SDS011;9330;52.210;21.174;2022-10-23T09:13:43;20.27;;;15.85;;
18407;SDS011;9330;52.210;21.174;2022-10-23T09:16:34;21.73;;;17.02;;
18407;SDS011;9330;52.210;21.174;2022-10-23T09:19:09;18.23;;;15.68;;
18407;SDS011;9330;52.210;21.174;2022-10-23T09:21:39;16.70;;;13.98;;
18407;SDS011;9330;52.210;21.174;2022-10-23T09:24:10;21.17;;;14.68;;
18407;SDS011;9330;52.210;21.174;2022-10-23T09:26:42;19.40;;;14.25;;
18407;SDS011;9330;52.210;21.174;2022-10-23T09:29:13;19.13;;;15.30;;
18407;SDS011;9330;52.210;21.174;2022-10-23T09:31:49;20.05;;;15.27;;
18407;SDS011;9330;52.210;21.174;2022-10-23T09:34:18;18.67;;;13.93;;
18407;SDS011;9330;52.210;21.174;2022-10-23T09:36:48;23.15;;;16.42;;
18407;SDS011;9330;52.210;21.174;2022-10-23T09:39:20;18.95;;;15.07;;
18407;SDS011;9330;52.210;21.174;2022-10-23T09:41:50;18.13;;;14.02;;
18407;SDS011;9330;52.210;21.174;2022-10-23T09:44:18;19.67;;;14.50;;
18407;SDS011;9330;52.210;21.174;2022-10-23T09:46:47;18.65;;;14.77;;
18407;SDS011;9330;52.210;21.174;2022-10-23T09:49:19;19.73;;;14.27;;
18407;SDS011;9330;52.210;21.174;2022-10-23T09:51:50;18.00;;;13.82;;
18407;SDS011;9330;52.210;21.174;2022-10-23T09:54:27;17.98;;;13.88;;
18407;SDS011;9330;52.210;21.174;2022-10-23T09:56:57;16.45;;;13.25;;
18407;SDS011;9330;52.210;21.174;2022-10-23T09:59:29;16.45;;;13.02;;
18407;SDS011;9330;52.210;21.174;2022-10-23T10:02:00;18.10;;;13.75;;
18407;SDS011;9330;52.210;21.174;2022-10-23T10:04:33;18.23;;;13.43;;
18407;SDS011;9330;52.210;21.174;2022-10-23T10:07:01;22.45;;;14.23;;
18407;SDS011;9330;52.210;21.174;2022-10-23T10:09:31;18.08;;;13.73;;
18407;SDS011;9330;52.210;21.174;2022-10-23T10:12:02;18.10;;;13.68;;
18407;SDS011;9330;52.210;21.174;2022-10-23T10:14:45;16.92;;;12.18;;
18407;SDS011;9330;52.210;21.174;2022-10-23T10:17:25;15.70;;;12.77;;
18407;SDS011;9330;52.210;21.174;2022-10-23T10:20:03;14.63;;;12.02;;
18407;SDS011;9330;52.210;21.174;2022-10-23T10:22:41;18.48;;;12.93;;
18407;SDS011;9330;52.210;21.174;2022-10-23T10:25:16;16.55;;;11.43;;
18407;SDS011;9330;52.210;21.174;2022-10-23T10:27:50;14.80;;;11.77;;
18407;SDS011;9330;52.210;21.174;2022-10-23T10:30:24;19.00;;;12.18;;
18407;SDS011;9330;52.210;21.174;2022-10-23T10:32:59;16.13;;;12.35;;
18407;SDS011;9330;52.210;21.174;2022-10-23T10:35:39;20.48;;;11.88;;
18407;SDS011;9330;52.210;21.174;2022-10-23T10:38:18;15.77;;;11.95;;
18407;SDS011;9330;52.210;21.174;2022-10-23T10:41:04;14.68;;;12.00;;
18407;SDS011;9330;52.210;21.174;2022-10-23T10:44:03;17.25;;;12.48;;
18407;SDS011;9330;52.210;21.174;2022-10-23T10:46:50;17.65;;;11.60;;
18407;SDS011;9330;52.210;21.174;2022-10-23T10:49:25;15.68;;;11.07;;
18407;SDS011;9330;52.210;21.174;2022-10-23T10:51:59;15.85;;;11.35;;
18407;SDS011;9330;52.210;21.174;2022-10-23T10:54:39;14.63;;;11.05;;
18407;SDS011;9330;52.210;21.174;2022-10-23T10:57:14;14.88;;;11.18;;
18407;SDS011;9330;52.210;21.174;2022-10-23T10:59:49;15.68;;;11.30;;
18407;SDS011;9330;52.210;21.174;2022-10-23T11:02:20;16.73;;;11.40;;
18407;SDS011;9330;52.210;21.174;2022-10-23T11:04:55;14.48;;;11.18;;
18407;SDS011;9330;52.210;21.174;2022-10-23T11:07:31;14.80;;;11.45;;
18407;SDS011;9330;52.210;21.174;2022-10-23T11:10:05;18.77;;;11.65;;
18407;SDS011;9330;52.210;21.174;2022-10-23T11:12:41;17.10;;;11.98;;
18407;SDS011;9330;52.210;21.174;2022-10-23T11:15:11;12.95;;;10.63;;
18407;SDS011;9330;52.210;21.174;2022-10-23T11:17:41;15.05;;;10.95;;
18407;SDS011;9330;52.210;21.174;2022-10-23T11:20:15;11.93;;;9.65;;
18407;SDS011;9330;52.210;21.174;2022-10-23T11:22:59;14.00;;;9.52;;
18407;SDS011;9330;52.210;21.174;2022-10-23T11:25:49;12.63;;;9.20;;
18407;SDS011;9330;52.210;21.174;2022-10-23T11:28:29;14.10;;;8.52;;
18407;SDS011;9330;52.210;21.174;2022-10-23T11:31:14;9.80;;;8.00;;
18407;SDS011;9330;52.210;21.174;2022-10-23T11:33:54;10.95;;;7.82;;
18407;SDS011;9330;52.210;21.174;2022-10-23T11:36:38;9.40;;;7.55;;
18407;SDS011;9330;52.210;21.174;2022-10-23T11:39:14;11.90;;;7.90;;
18407;SDS011;9330;52.210;21.174;2022-10-23T11:41:47;10.05;;;7.85;;
18407;SDS011;9330;52.210;21.174;2022-10-23T11:44:24;12.90;;;8.95;;
18407;SDS011;9330;52.210;21.174;2022-10-23T11:47:00;9.85;;;8.75;;
18407;SDS011;9330;52.210;21.174;2022-10-23T11:49:28;13.18;;;8.55;;
18407;SDS011;9330;52.210;21.174;2022-10-23T11:52:00;10.95;;;8.27;;
18407;SDS011;9330;52.210;21.174;2022-10-23T11:54:28;12.73;;;9.10;;
18407;SDS011;9330;52.210;21.174;2022-10-23T11:57:03;12.25;;;8.40;;
18407;SDS011;9330;52.210;21.174;2022-10-23T11:59:38;13.00;;;8.15;;
18407;SDS011;9330;52.210;21.174;2022-10-23T12:02:29;9.27;;;7.60;;
18407;SDS011;9330;52.210;21.174;2022-10-23T12:04:59;10.50;;;7.90;;
18407;SDS011;9330;52.210;21.174;2022-10-23T12:07:30;13.10;;;8.55;;
18407;SDS011;9330;52.210;21.174;2022-10-23T12:10:01;12.10;;;9.00;;
18407;SDS011;9330;52.210;21.174;2022-10-23T12:12:31;11.05;;;8.45;;
18407;SDS011;9330;52.210;21.174;2022-10-23T12:15:05;9.07;;;8.15;;
18407;SDS011;9330;52.210;21.174;2022-10-23T12:17:35;11.27;;;8.57;;
18407;SDS011;9330;52.210;21.174;2022-10-23T12:23:09;11.07;;;7.93;;
18407;SDS011;9330;52.210;21.174;2022-10-23T12:25:54;9.38;;;8.05;;
18407;SDS011;9330;52.210;21.174;2022-10-23T12:28:40;12.98;;;8.30;;
18407;SDS011;9330;52.210;21.174;2022-10-23T12:31:19;8.95;;;7.70;;
18407;SDS011;9330;52.210;21.174;2022-10-23T12:33:56;12.88;;;8.02;;
18407;SDS011;9330;52.210;21.174;2022-10-23T12:36:38;9.68;;;8.65;;
18407;SDS011;9330;52.210;21.174;2022-10-23T12:39:28;9.80;;;7.85;;
18407;SDS011;9330;52.210;21.174;2022-10-23T12:41:57;10.68;;;7.80;;
18407;SDS011;9330;52.210;21.174;2022-10-23T12:44:25;12.55;;;8.65;;
18407;SDS011;9330;52.210;21.174;2022-10-23T12:46:53;9.02;;;7.50;;
18407;SDS011;9330;52.210;21.174;2022-10-23T12:49:23;11.02;;;7.30;;
18407;SDS011;9330;52.210;21.174;2022-10-23T12:51:55;9.98;;;7.80;;
18407;SDS011;9330;52.210;21.174;2022-10-23T12:54:24;9.88;;;7.90;;
18407;SDS011;9330;52.210;21.174;2022-10-23T12:56:53;10.23;;;8.30;;
18407;SDS011;9330;52.210;21.174;2022-10-23T12:59:22;10.13;;;9.02;;
18407;SDS011;9330;52.210;21.174;2022-10-23T13:01:51;12.02;;;9.65;;
18407;SDS011;9330;52.210;21.174;2022-10-23T13:04:24;9.75;;;8.50;;
18407;SDS011;9330;52.210;21.174;2022-10-23T13:06:55;12.65;;;8.77;;
18407;SDS011;9330;52.210;21.174;2022-10-23T13:09:26;12.73;;;8.13;;
18407;SDS011;9330;52.210;21.174;2022-10-23T13:11:57;10.25;;;9.25;;
18407;SDS011;9330;52.210;21.174;2022-10-23T13:14:31;12.55;;;10.02;;
18407;SDS011;9330;52.210;21.174;2022-10-23T13:17:00;9.35;;;8.32;;
18407;SDS011;9330;52.210;21.174;2022-10-23T13:19:29;10.15;;;8.50;;
18407;SDS011;9330;52.210;21.174;2022-10-23T13:21:56;10.23;;;8.48;;
18407;SDS011;9330;52.210;21.174;2022-10-23T13:24:24;11.38;;;8.55;;
18407;SDS011;9330;52.210;21.174;2022-10-23T13:26:54;11.63;;;7.80;;
18407;SDS011;9330;52.210;21.174;2022-10-23T13:29:24;13.20;;;9.10;;
18407;SDS011;9330;52.210;21.174;2022-10-23T13:31:53;11.32;;;8.75;;
18407;SDS011;9330;52.210;21.174;2022-10-23T13:34:25;10.10;;;8.48;;
18407;SDS011;9330;52.210;21.174;2022-10-23T13:36:55;11.77;;;8.82;;
18407;SDS011;9330;52.210;21.174;2022-10-23T13:39:25;11.98;;;9.68;;
18407;SDS011;9330;52.210;21.174;2022-10-23T13:41:54;10.95;;;9.32;;
18407;SDS011;9330;52.210;21.174;2022-10-23T13:44:23;11.55;;;9.80;;
18407;SDS011;9330;52.210;21.174;2022-10-23T13:46:51;13.52;;;10.60;;
18407;SDS011;9330;52.210;21.174;2022-10-23T13:49:18;11.30;;;9.82;;
18407;SDS011;9330;52.210;21.174;2022-10-23T13:51:46;13.18;;;10.38;;
18407;SDS011;9330;52.210;21.174;2022-10-23T13:54:16;12.10;;;10.10;;
18407;SDS011;9330;52.210;21.174;2022-10-23T13:56:45;16.50;;;11.15;;
18407;SDS011;9330;52.210;21.174;2022-10-23T13:59:13;15.45;;;10.52;;
18407;SDS011;9330;52.210;21.174;2022-10-23T14:01:42;13.07;;;10.43;;
18407;SDS011;9330;52.210;21.174;2022-10-23T14:04:10;12.73;;;9.85;;
18407;SDS011;9330;52.210;21.174;2022-10-23T14:06:38;12.30;;;10.68;;
18407;SDS011;9330;52.210;21.174;2022-10-23T14:09:06;14.07;;;10.55;;
18407;SDS011;9330;52.210;21.174;2022-10-23T14:11:35;12.25;;;10.27;;
18407;SDS011;9330;52.210;21.174;2022-10-23T14:14:03;14.35;;;10.57;;
18407;SDS011;9330;52.210;21.174;2022-10-23T14:16:31;12.18;;;10.90;;
18407;SDS011;9330;52.210;21.174;2022-10-23T14:18:59;13.05;;;11.07;;
18407;SDS011;9330;52.210;21.174;2022-10-23T14:21:26;12.82;;;10.48;;
18407;SDS011;9330;52.210;21.174;2022-10-23T14:23:53;13.55;;;10.32;;
18407;SDS011;9330;52.210;21.174;2022-10-23T14:26:22;11.63;;;9.82;;
18407;SDS011;9330;52.210;21.174;2022-10-23T14:28:51;13.93;;;11.05;;
18407;SDS011;9330;52.210;21.174;2022-10-23T14:31:19;16.30;;;11.43;;
18407;SDS011;9330;52.210;21.174;2022-10-23T14:33:49;13.52;;;11.40;;
18407;SDS011;9330;52.210;21.174;2022-10-23T14:36:20;12.88;;;10.68;;
18407;SDS011;9330;52.210;21.174;2022-10-23T14:38:47;17.65;;;11.98;;
18407;SDS011;9330;52.210;21.174;2022-10-23T14:41:15;12.77;;;10.75;;
18407;SDS011;9330;52.210;21.174;2022-10-23T14:43:42;14.50;;;12.07;;
18407;SDS011;9330;52.210;21.174;2022-10-23T14:46:10;15.02;;;11.13;;
18407;SDS011;9330;52.210;21.174;2022-10-23T14:48:38;12.05;;;10.82;;
18407;SDS011;9330;52.210;21.174;2022-10-23T14:51:12;12.57;;;11.27;;